Time;durP1;ratioP1;P1;durP2;ratioP2;P2;SDS_P1;SDS_P2;PMS_P1;PMS_P2;Temp;Humidity;BMP_temperature;BMP_pressure;BME280_temperature;BME280_humidity;BME280_pressure;Samples;Min_cycle;Max_cycle;Signal;HPM_P1;HPM_P2
2023/07/20 00:01:52;;;;;;;3.28;2.58;;;21.30;99.90;;;;;;5103415;28;20304;-75
2023/07/20 00:04:19;;;;;;;2.33;2.20;;;21.40;99.90;;;;;;5105586;28;20204;-74
2023/07/20 00:06:46;;;;;;;3.25;2.40;;;21.40;99.90;;;;;;5106400;28;20189;-75
2023/07/20 00:09:13;;;;;;;3.15;2.30;;;21.30;99.90;;;;;;5102055;28;20586;-75
2023/07/20 00:11:40;;;;;;;2.80;1.80;;;21.30;99.90;;;;;;5115276;27;20196;-76
2023/07/20 00:14:07;;;;;;;3.17;2.22;;;21.30;99.90;;;;;;5113470;27;20235;-76
2023/07/20 00:16:34;;;;;;;2.28;2.13;;;21.40;99.90;;;;;;5114704;28;20250;-74
2023/07/20 00:19:03;;;;;;;3.63;2.15;;;21.50;99.90;;;;;;5112246;28;20229;-75
2023/07/20 00:21:30;;;;;;;4.18;2.78;;;21.50;99.90;;;;;;5103609;28;20220;-75
2023/07/20 00:23:57;;;;;;;3.08;2.00;;;21.50;99.90;;;;;;5108940;28;20252;-76
2023/07/20 00:26:24;;;;;;;2.22;2.13;;;21.40;99.90;;;;;;5101357;28;20197;-75
2023/07/20 00:28:52;;;;;;;2.60;2.40;;;21.30;99.90;;;;;;5099775;28;20266;-75
2023/07/20 00:31:19;;;;;;;2.50;2.30;;;21.30;99.90;;;;;;5103127;28;20217;-76
2023/07/20 00:33:46;;;;;;;3.67;2.55;;;21.30;99.90;;;;;;5101696;28;20192;-75
2023/07/20 00:36:14;;;;;;;4.35;2.58;;;21.20;99.90;;;;;;5102399;28;20849;-75
2023/07/20 00:38:41;;;;;;;2.10;2.00;;;21.20;99.90;;;;;;5103576;28;20758;-76
2023/07/20 00:41:08;;;;;;;2.67;2.47;;;21.20;99.90;;;;;;5100773;28;20216;-75
2023/07/20 00:43:35;;;;;;;3.25;2.60;;;21.20;99.90;;;;;;5105626;28;20236;-75
2023/07/20 00:46:03;;;;;;;2.75;2.30;;;21.20;99.90;;;;;;5103912;28;20220;-75
2023/07/20 00:48:30;;;;;;;2.35;2.15;;;21.20;99.90;;;;;;5104507;28;20216;-75
2023/07/20 00:50:58;;;;;;;2.50;2.30;;;21.10;99.90;;;;;;5103971;28;20274;-75
2023/07/20 00:53:27;;;;;;;2.55;2.35;;;21.00;99.90;;;;;;5105708;27;21269;-75
2023/07/20 00:55:54;;;;;;;2.42;2.22;;;20.90;99.90;;;;;;5101343;28;20229;-76
2023/07/20 00:58:21;;;;;;;2.70;2.50;;;20.90;99.90;;;;;;5102661;28;20656;-75
2023/07/20 01:00:48;;;;;;;2.53;2.33;;;21.00;99.90;;;;;;5101369;28;20746;-73
2023/07/20 01:03:15;;;;;;;2.83;2.50;;;21.00;99.90;;;;;;5102182;28;20201;-74
2023/07/20 01:05:49;;;;;;;3.38;2.25;;;21.00;99.90;;;;;;5102773;28;20202;-76
2023/07/20 01:08:25;;;;;;;2.50;2.30;;;21.10;99.90;;;;;;5102928;28;20304;-75
2023/07/20 01:10:59;;;;;;;2.83;2.25;;;21.10;99.90;;;;;;5102043;28;20249;-76
2023/07/20 01:13:27;;;;;;;3.70;2.97;;;21.10;99.90;;;;;;5101843;28;20253;-75
2023/07/20 01:15:58;;;;;;;2.40;2.20;;;21.10;99.90;;;;;;5099542;28;20351;-75
2023/07/20 01:18:25;;;;;;;2.83;2.63;;;21.10;99.90;;;;;;5099817;28;20213;-75
2023/07/20 01:20:55;;;;;;;3.72;2.60;;;21.20;99.90;;;;;;5102008;28;20217;-76
2023/07/20 01:23:43;;;;;;;2.70;2.50;;;21.20;99.90;;;;;;5117933;27;20198;-75
2023/07/20 01:26:29;;;;;;;2.50;2.30;;;21.10;99.90;;;;;;5123522;28;20189;-77
2023/07/20 01:29:19;;;;;;;2.65;2.42;;;21.00;99.90;;;;;;5130228;28;20686;-74
2023/07/20 01:31:49;;;;;;;3.22;2.40;;;21.10;99.90;;;;;;5121921;27;20197;-75
2023/07/20 01:34:19;;;;;;;2.55;2.35;;;21.10;99.90;;;;;;5099100;27;20360;-75
2023/07/20 01:36:49;;;;;;;4.28;2.22;;;21.10;99.90;;;;;;5101622;28;20204;-75
2023/07/20 01:39:16;;;;;;;2.80;2.60;;;21.10;99.90;;;;;;5100423;28;20213;-76
2023/07/20 01:41:44;;;;;;;3.03;2.72;;;21.10;99.90;;;;;;5095282;28;20299;-75
2023/07/20 01:44:11;;;;;;;2.75;2.20;;;21.00;99.90;;;;;;5097735;28;20201;-74
2023/07/20 01:46:38;;;;;;;2.85;2.50;;;21.00;99.90;;;;;;5101001;28;20200;-75
2023/07/20 01:49:06;;;;;;;3.28;2.40;;;21.00;99.90;;;;;;5101000;28;20217;-75
2023/07/20 01:51:33;;;;;;;2.42;2.22;;;20.90;99.90;;;;;;5097755;28;20262;-75
2023/07/20 01:54:00;;;;;;;3.03;2.30;;;20.60;99.90;;;;;;5101705;28;20241;-77
2023/07/20 01:56:27;;;;;;;3.00;2.70;;;20.50;99.90;;;;;;5101060;28;20205;-75
2023/07/20 01:58:54;;;;;;;3.78;2.83;;;20.50;99.90;;;;;;5099666;28;20225;-74
2023/07/20 02:01:21;;;;;;;5.05;2.95;;;20.60;99.90;;;;;;5094438;27;20214;-75
2023/07/20 02:03:48;;;;;;;3.15;2.85;;;20.80;99.90;;;;;;5096482;27;20283;-75
2023/07/20 02:06:17;;;;;;;2.60;2.40;;;20.80;99.90;;;;;;5099854;28;20232;-75
2023/07/20 02:08:44;;;;;;;3.50;2.63;;;20.80;99.90;;;;;;5099608;28;20311;-77
2023/07/20 02:11:11;;;;;;;4.15;2.58;;;20.80;99.90;;;;;;5099815;28;20216;-76
2023/07/20 02:13:38;;;;;;;3.22;2.80;;;20.70;99.90;;;;;;5101554;28;20721;-74
2023/07/20 02:16:05;;;;;;;2.70;2.50;;;20.60;99.90;;;;;;5099785;28;20204;-75
2023/07/20 02:18:32;;;;;;;2.80;2.60;;;20.60;99.90;;;;;;5096624;28;20742;-75
2023/07/20 02:21:00;;;;;;;2.58;2.35;;;20.60;99.90;;;;;;5100162;28;20244;-78
2023/07/20 02:23:28;;;;;;;3.20;2.28;;;20.60;99.90;;;;;;5095816;28;20280;-75
2023/07/20 02:25:55;;;;;;;2.53;2.33;;;20.50;99.90;;;;;;5101182;28;20344;-75
2023/07/20 02:28:22;;;;;;;3.28;2.97;;;20.50;99.90;;;;;;5096923;28;20317;-75
2023/07/20 02:30:49;;;;;;;2.83;2.50;;;20.50;99.90;;;;;;5101272;28;20196;-75
2023/07/20 02:33:16;;;;;;;3.40;2.60;;;20.50;99.90;;;;;;5095951;28;20292;-76
2023/07/20 02:35:43;;;;;;;3.05;2.58;;;20.50;99.90;;;;;;5097326;28;20219;-77
2023/07/20 02:38:10;;;;;;;2.67;2.47;;;20.50;99.90;;;;;;5097732;28;20213;-76
2023/07/20 02:40:38;;;;;;;3.90;2.72;;;20.40;99.90;;;;;;5100678;28;20264;-76
2023/07/20 02:43:05;;;;;;;2.97;2.50;;;20.50;99.90;;;;;;5099526;28;20252;-75
2023/07/20 02:45:32;;;;;;;2.80;2.60;;;20.40;99.90;;;;;;5098346;28;20201;-75
2023/07/20 02:47:59;;;;;;;3.00;2.75;;;20.40;99.90;;;;;;5101144;28;20221;-76
2023/07/20 02:50:26;;;;;;;2.95;2.67;;;20.40;99.90;;;;;;5096699;28;20294;-75
2023/07/20 02:52:53;;;;;;;3.63;2.55;;;20.40;99.90;;;;;;5096595;28;20740;-75
2023/07/20 02:55:20;;;;;;;2.67;2.47;;;20.30;99.90;;;;;;5098251;28;20201;-74
2023/07/20 02:57:48;;;;;;;4.13;2.58;;;20.30;99.90;;;;;;5096217;28;20304;-75
2023/07/20 03:00:16;;;;;;;3.13;2.83;;;20.30;99.90;;;;;;5095906;28;20208;-75
2023/07/20 03:02:43;;;;;;;2.97;2.65;;;20.40;99.90;;;;;;5093857;28;20806;-75
2023/07/20 03:05:11;;;;;;;2.92;2.63;;;20.30;99.90;;;;;;5095900;28;20291;-76
2023/07/20 03:07:37;;;;;;;4.20;2.78;;;20.30;99.90;;;;;;5097798;27;20221;-78
2023/07/20 03:10:07;;;;;;;3.90;2.95;;;20.30;99.90;;;;;;5097770;28;20658;-76
2023/07/20 03:12:34;;;;;;;4.28;2.78;;;20.40;99.90;;;;;;5095258;28;20193;-78
2023/07/20 03:15:03;;;;;;;3.15;2.53;;;20.40;99.90;;;;;;5095929;28;20710;-75
2023/07/20 03:17:30;;;;;;;2.70;2.50;;;20.40;99.90;;;;;;5103023;28;20290;-78
2023/07/20 03:19:57;;;;;;;3.75;2.40;;;20.40;99.90;;;;;;5117074;28;20255;-76
2023/07/20 03:22:24;;;;;;;4.00;2.65;;;20.40;99.90;;;;;;5095300;28;20280;-77
2023/07/20 03:24:51;;;;;;;2.80;2.60;;;20.50;99.90;;;;;;5101091;28;20686;-76
2023/07/20 03:27:18;;;;;;;6.43;2.88;;;20.50;99.90;;;;;;5096953;28;20255;-75
2023/07/20 03:29:45;;;;;;;3.15;2.50;;;20.50;99.90;;;;;;5095016;28;20196;-74
2023/07/20 03:32:13;;;;;;;3.05;2.75;;;20.50;99.90;;;;;;5096626;28;20228;-75
2023/07/20 03:34:41;;;;;;;2.80;2.60;;;20.50;99.90;;;;;;5093591;28;20205;-75
2023/07/20 03:37:08;;;;;;;2.38;2.25;;;20.50;99.90;;;;;;5098801;28;20235;-75
2023/07/20 03:39:35;;;;;;;2.42;2.22;;;20.40;99.90;;;;;;5093393;28;20202;-74
2023/07/20 03:42:02;;;;;;;2.97;2.78;;;20.40;99.90;;;;;;5096275;28;20300;-75
2023/07/20 03:44:29;;;;;;;2.90;2.60;;;20.40;99.90;;;;;;5095235;28;20272;-75
2023/07/20 03:46:56;;;;;;;3.53;2.95;;;20.40;99.90;;;;;;5099536;28;20823;-75
2023/07/20 03:49:24;;;;;;;3.28;2.65;;;20.40;99.90;;;;;;5096479;28;20703;-76
2023/07/20 03:51:51;;;;;;;2.53;2.33;;;20.40;99.90;;;;;;5099089;28;20654;-75
2023/07/20 03:54:18;;;;;;;2.78;2.58;;;20.40;99.90;;;;;;5092492;28;20214;-74
2023/07/20 03:56:45;;;;;;;3.00;2.70;;;20.40;99.90;;;;;;5093304;28;20258;-76
2023/07/20 03:59:13;;;;;;;4.25;2.95;;;20.30;99.90;;;;;;5095472;28;20249;-77
2023/07/20 04:01:40;;;;;;;3.35;2.65;;;20.20;99.90;;;;;;5099360;28;20270;-77
2023/07/20 04:04:08;;;;;;;3.92;2.70;;;20.00;99.90;;;;;;5100167;28;20244;-75
2023/07/20 04:06:36;;;;;;;2.70;2.50;;;19.80;99.90;;;;;;5095962;28;20671;-75
2023/07/20 04:09:04;;;;;;;3.00;2.78;;;19.70;99.90;;;;;;5092029;28;20254;-76
2023/07/20 04:11:31;;;;;;;2.60;2.40;;;19.70;99.90;;;;;;5093658;28;20200;-74
2023/07/20 04:13:58;;;;;;;2.67;2.47;;;19.60;99.90;;;;;;5099698;28;20299;-77
2023/07/20 04:16:26;;;;;;;2.30;2.10;;;19.60;99.90;;;;;;5093181;28;20198;-75
2023/07/20 04:18:55;;;;;;;2.38;2.17;;;19.60;99.90;;;;;;5096666;28;20312;-75
2023/07/20 04:21:22;;;;;;;2.63;2.33;;;19.60;99.90;;;;;;5092971;28;20275;-75
2023/07/20 04:23:50;;;;;;;2.95;2.65;;;19.60;99.90;;;;;;5096393;28;20214;-75
2023/07/20 04:26:17;;;;;;;3.20;2.70;;;19.70;99.90;;;;;;5099856;28;20193;-75
2023/07/20 04:28:44;;;;;;;3.38;3.08;;;19.70;99.90;;;;;;5099621;28;20304;-75
2023/07/20 04:31:12;;;;;;;2.83;2.63;;;19.80;99.90;;;;;;5100754;28;20266;-76
2023/07/20 04:33:39;;;;;;;2.67;2.47;;;19.90;99.90;;;;;;5096539;28;20208;-75
2023/07/20 04:36:07;;;;;;;2.80;2.55;;;19.90;99.90;;;;;;5092620;28;20246;-75
2023/07/20 04:38:34;;;;;;;2.70;2.50;;;20.00;99.90;;;;;;5098862;28;20217;-75
2023/07/20 04:41:02;;;;;;;2.55;2.35;;;20.00;99.90;;;;;;5097739;28;20901;-75
2023/07/20 04:43:30;;;;;;;3.25;2.65;;;20.10;99.90;;;;;;5096498;28;20657;-75
2023/07/20 04:45:58;;;;;;;2.60;2.40;;;20.20;99.90;;;;;;5096130;28;20224;-75
2023/07/20 04:48:25;;;;;;;2.90;2.63;;;20.20;99.90;;;;;;5096502;28;20749;-75
2023/07/20 04:50:52;;;;;;;2.72;2.53;;;20.30;99.90;;;;;;5097318;28;20201;-76
2023/07/20 04:53:19;;;;;;;2.85;2.65;;;20.40;99.90;;;;;;5099869;28;20269;-75
2023/07/20 04:55:51;;;;;;;2.65;2.45;;;20.50;99.90;;;;;;5095397;28;20201;-76
2023/07/20 04:58:20;;;;;;;2.58;2.38;;;20.60;99.90;;;;;;5101483;28;20226;-76
2023/07/20 05:00:47;;;;;;;3.10;2.80;;;20.60;99.90;;;;;;5104755;28;20258;-77
2023/07/20 05:03:14;;;;;;;2.88;2.40;;;20.70;99.90;;;;;;5102522;28;20216;-76
2023/07/20 05:05:41;;;;;;;3.00;2.70;;;20.80;99.90;;;;;;5103007;28;20200;-76
2023/07/20 05:08:08;;;;;;;2.75;2.55;;;20.80;99.90;;;;;;5117958;28;20217;-75
2023/07/20 05:10:35;;;;;;;4.70;2.97;;;20.90;99.90;;;;;;5118865;28;20884;-76
2023/07/20 05:13:02;;;;;;;2.83;2.63;;;21.10;99.90;;;;;;5110392;28;20193;-75
2023/07/20 05:15:30;;;;;;;2.85;2.65;;;21.10;99.90;;;;;;5107106;28;20204;-75
2023/07/20 05:17:57;;;;;;;4.18;3.40;;;21.20;99.90;;;;;;5105920;27;20224;-76
2023/07/20 05:20:24;;;;;;;3.42;3.17;;;21.10;99.90;;;;;;5100112;28;20720;-75
2023/07/20 05:22:52;;;;;;;6.05;3.55;;;21.20;99.90;;;;;;5105190;28;20226;-75
2023/07/20 05:25:22;;;;;;;5.35;3.30;;;21.20;99.90;;;;;;5099226;28;20239;-76
2023/07/20 05:27:50;;;;;;;5.10;3.10;;;21.20;99.90;;;;;;5100854;28;20695;-76
2023/07/20 05:30:17;;;;;;;4.03;3.30;;;21.10;99.90;;;;;;5103974;28;20638;-76
2023/07/20 05:32:47;;;;;;;3.50;3.20;;;21.10;99.90;;;;;;5100518;28;20233;-76
2023/07/20 05:35:15;;;;;;;3.53;3.22;;;21.20;99.90;;;;;;5103304;28;20713;-76
2023/07/20 05:37:42;;;;;;;3.60;3.30;;;21.30;99.90;;;;;;5106083;28;20217;-78
2023/07/20 05:40:11;;;;;;;3.72;3.05;;;21.40;99.90;;;;;;5103689;28;20250;-75
2023/07/20 05:42:38;;;;;;;3.40;3.10;;;21.50;99.90;;;;;;5102128;28;20213;-76
2023/07/20 05:45:07;;;;;;;3.60;3.00;;;21.60;99.90;;;;;;5099829;28;20295;-75
2023/07/20 05:47:34;;;;;;;3.97;2.80;;;21.60;99.90;;;;;;5102398;27;20751;-77
2023/07/20 05:50:03;;;;;;;3.65;3.20;;;21.80;99.90;;;;;;5103652;27;20253;-76
2023/07/20 05:52:30;;;;;;;3.33;3.03;;;21.90;99.90;;;;;;5102929;28;20202;-75
2023/07/20 05:54:57;;;;;;;5.82;3.80;;;21.90;99.90;;;;;;5103697;28;20285;-75
2023/07/20 05:57:24;;;;;;;3.25;2.90;;;21.90;99.90;;;;;;5103414;28;20302;-76
2023/07/20 05:59:51;;;;;;;4.70;3.38;;;22.00;99.90;;;;;;5102121;28;20278;-77
2023/07/20 06:02:18;;;;;;;5.47;3.63;;;22.00;99.90;;;;;;5102507;28;20656;-77
2023/07/20 06:04:45;;;;;;;4.53;3.55;;;22.20;99.90;;;;;;5101274;28;20616;-76
2023/07/20 06:07:13;;;;;;;6.40;3.25;;;22.30;99.90;;;;;;5096408;27;20280;-76
2023/07/20 06:09:40;;;;;;;3.70;3.17;;;22.30;99.90;;;;;;5102423;28;20193;-74
2023/07/20 06:12:09;;;;;;;4.22;3.30;;;22.30;99.90;;;;;;5100674;28;20209;-76
2023/07/20 06:14:36;;;;;;;3.67;3.33;;;22.30;99.90;;;;;;5100084;28;20200;-76
2023/07/20 06:17:03;;;;;;;3.38;3.08;;;22.30;99.90;;;;;;5100475;28;20227;-76
2023/07/20 06:19:30;;;;;;;3.60;3.30;;;22.50;99.90;;;;;;5099580;28;20340;-76
2023/07/20 06:21:57;;;;;;;4.72;3.50;;;22.60;99.90;;;;;;5103384;28;20691;-75
2023/07/20 06:24:25;;;;;;;4.00;3.60;;;22.70;99.90;;;;;;5105019;28;20229;-76
2023/07/20 06:26:52;;;;;;;3.75;3.42;;;22.80;99.90;;;;;;5102808;27;20228;-75
2023/07/20 06:29:19;;;;;;;3.88;3.55;;;22.90;99.90;;;;;;5099027;28;20228;-75
2023/07/20 06:31:46;;;;;;;4.38;3.97;;;23.00;99.90;;;;;;5100965;28;20201;-75
2023/07/20 06:34:13;;;;;;;3.53;3.20;;;23.10;99.90;;;;;;5102048;28;20205;-75
2023/07/20 06:36:40;;;;;;;4.28;3.38;;;23.00;99.90;;;;;;5100262;28;20254;-75
2023/07/20 06:39:07;;;;;;;4.10;3.15;;;23.00;99.90;;;;;;5098730;28;20260;-75
2023/07/20 06:41:35;;;;;;;4.18;3.03;;;23.10;99.90;;;;;;5098636;28;20675;-75
2023/07/20 06:44:03;;;;;;;5.20;3.70;;;23.20;99.90;;;;;;5095765;28;20304;-75
2023/07/20 06:46:30;;;;;;;3.95;3.63;;;23.30;99.90;;;;;;5093868;28;20289;-78
2023/07/20 06:48:57;;;;;;;3.72;3.42;;;23.40;99.90;;;;;;5111185;28;20243;-76
2023/07/20 06:51:24;;;;;;;5.43;3.58;;;23.30;99.90;;;;;;5113999;28;20203;-76
2023/07/20 06:53:51;;;;;;;3.83;3.53;;;23.20;99.90;;;;;;5099582;28;20297;-76
2023/07/20 06:56:17;;;;;;;5.95;3.70;;;23.10;99.90;;;;;;5099873;27;20193;-76
2023/07/20 06:58:46;;;;;;;4.72;3.60;;;23.10;99.90;;;;;;5095960;28;20293;-74
2023/07/20 07:01:13;;;;;;;4.25;3.60;;;23.10;99.90;;;;;;5096659;28;20225;-75
2023/07/20 07:03:40;;;;;;;6.03;3.28;;;23.20;99.90;;;;;;5098331;28;20209;-77
2023/07/20 07:06:07;;;;;;;4.70;4.05;;;23.30;99.90;;;;;;5098200;28;20193;-74
2023/07/20 07:08:34;;;;;;;5.72;4.40;;;23.40;99.90;;;;;;5112208;28;20204;-76
2023/07/20 07:11:01;;;;;;;4.40;4.00;;;23.50;99.90;;;;;;5121310;28;21784;-77
2023/07/20 07:13:28;;;;;;;4.00;3.70;;;23.40;99.90;;;;;;5103084;28;20197;-76
2023/07/20 07:15:56;;;;;;;7.53;3.72;;;23.50;99.90;;;;;;5098952;28;20903;-74
2023/07/20 07:18:24;;;;;;;5.68;4.18;;;23.60;99.90;;;;;;5095476;28;20246;-75
2023/07/20 07:20:53;;;;;;;5.68;3.70;;;23.60;99.90;;;;;;5094591;28;22016;-75
2023/07/20 07:23:20;;;;;;;5.75;4.03;;;23.60;99.90;;;;;;5093548;28;20212;-74
2023/07/20 07:25:47;;;;;;;9.18;4.50;;;23.60;99.90;;;;;;5094605;28;20229;-74
2023/07/20 07:28:14;;;;;;;4.10;3.70;;;23.60;99.90;;;;;;5095834;28;20308;-75
2023/07/20 07:30:42;;;;;;;6.22;3.85;;;23.70;99.90;;;;;;5097085;28;20310;-74
2023/07/20 07:33:10;;;;;;;5.13;3.60;;;23.70;99.90;;;;;;5101732;28;20204;-75
2023/07/20 07:35:37;;;;;;;4.30;3.60;;;23.70;99.90;;;;;;5100365;28;21052;-75
2023/07/20 07:38:05;;;;;;;4.05;3.75;;;24.00;99.90;;;;;;5101724;28;20676;-77
2023/07/20 07:40:32;;;;;;;3.58;3.28;;;24.00;99.90;;;;;;5108316;28;20756;-75
2023/07/20 07:42:59;;;;;;;4.03;3.40;;;24.10;99.90;;;;;;5106719;28;20537;-75
2023/07/20 07:45:25;;;;;;;6.70;3.83;;;24.20;99.90;;;;;;5099500;28;20250;-77
2023/07/20 07:47:52;;;;;;;4.32;3.55;;;24.50;99.90;;;;;;5097367;28;20311;-78
2023/07/20 07:50:21;;;;;;;3.47;3.13;;;24.50;99.90;;;;;;5100505;28;20192;-75
2023/07/20 07:52:48;;;;;;;7.80;3.60;;;24.70;99.90;;;;;;5097839;28;20193;-78
2023/07/20 07:55:16;;;;;;;4.18;3.60;;;24.80;99.90;;;;;;5093556;28;20276;-76
2023/07/20 07:57:43;;;;;;;4.88;3.72;;;24.80;99.90;;;;;;5100186;28;21403;-76
2023/07/20 08:00:14;;;;;;;7.32;3.53;;;25.00;99.90;;;;;;5095421;28;20726;-78
2023/07/20 08:02:42;;;;;;;4.55;3.60;;;25.20;99.90;;;;;;5094714;28;20247;-78
2023/07/20 08:05:09;;;;;;;4.38;3.67;;;25.50;99.90;;;;;;5092962;28;20206;-79
2023/07/20 08:07:37;;;;;;;4.63;4.00;;;25.60;99.90;;;;;;5097505;28;20276;-78
2023/07/20 08:10:05;;;;;;;3.50;3.20;;;25.50;99.90;;;;;;5094116;28;20288;-77
2023/07/20 08:12:32;;;;;;;4.35;3.53;;;25.50;99.90;;;;;;5091893;28;20194;-79
2023/07/20 08:14:59;;;;;;;4.43;4.03;;;25.90;99.90;;;;;;5092378;28;20296;-82
2023/07/20 08:17:26;;;;;;;4.25;3.85;;;25.90;99.90;;;;;;5094939;28;20221;-76
2023/07/20 08:19:53;;;;;;;3.78;3.38;;;25.60;99.90;;;;;;5096212;28;21045;-77
2023/07/20 08:22:20;;;;;;;8.27;3.53;;;25.40;99.90;;;;;;5093758;28;20668;-79
2023/07/20 08:24:48;;;;;;;3.88;3.58;;;25.70;99.90;;;;;;5095142;28;20604;-78
2023/07/20 08:27:15;;;;;;;3.72;3.22;;;25.90;99.90;;;;;;5092910;28;20197;-79
2023/07/20 08:29:42;;;;;;;4.63;3.70;;;26.00;99.90;;;;;;5092325;28;20217;-77
2023/07/20 08:32:10;;;;;;;4.15;3.75;;;25.90;99.90;;;;;;5096729;28;20293;-83
2023/07/20 08:34:37;;;;;;;5.05;3.60;;;25.80;99.90;;;;;;5100615;28;20229;-77
2023/07/20 08:37:04;;;;;;;4.05;3.65;;;25.60;99.90;;;;;;5101308;28;20277;-77
2023/07/20 08:39:31;;;;;;;5.20;3.60;;;25.50;99.90;;;;;;5099380;28;20225;-79
2023/07/20 08:42:04;;;;;;;6.18;3.90;;;25.50;99.90;;;;;;5098373;28;20396;-77
2023/07/20 08:44:33;;;;;;;4.55;3.60;;;25.50;99.90;;;;;;5101036;28;20212;-78
2023/07/20 08:47:02;;;;;;;6.03;3.95;;;25.50;99.90;;;;;;5099646;28;20198;-77
2023/07/20 08:49:29;;;;;;;4.00;3.70;;;25.60;99.90;;;;;;5095974;28;20224;-76
2023/07/20 08:51:57;;;;;;;4.00;3.25;;;25.90;99.90;;;;;;5096948;28;20201;-82
2023/07/20 08:54:29;;;;;;;5.15;3.83;;;26.00;99.90;;;;;;5119692;28;20192;-86
2023/07/20 08:57:01;;;;;;;4.00;3.63;;;26.30;99.90;;;;;;5130605;27;20201;-85
2023/07/20 08:59:30;;;;;;;6.18;3.60;;;26.60;99.90;;;;;;5127521;28;20208;-80
2023/07/20 09:01:57;;;;;;;3.67;3.35;;;26.60;99.90;;;;;;5107052;28;20201;-81
2023/07/20 09:04:25;;;;;;;5.50;4.50;;;26.90;99.90;;;;;;5124064;28;20230;-86
2023/07/20 09:06:52;;;;;;;5.18;4.18;;;27.00;99.90;;;;;;5110375;28;20215;-81
2023/07/20 09:09:19;;;;;;;4.35;3.92;;;26.90;99.90;;;;;;5097145;28;20256;-78
2023/07/20 09:11:48;;;;;;;4.32;3.47;;;26.90;99.90;;;;;;5097844;28;20214;-76
2023/07/20 09:14:16;;;;;;;5.63;4.32;;;26.90;99.90;;;;;;5097188;28;20221;-82
2023/07/20 09:16:50;;;;;;;4.82;4.25;;;26.90;99.90;;;;;;5096865;28;21142;-78
2023/07/20 09:19:18;;;;;;;5.03;3.90;;;26.90;99.90;;;;;;5098157;28;20241;-81
2023/07/20 09:21:48;;;;;;;4.75;3.70;;;27.00;99.90;;;;;;5096501;28;20406;-79
2023/07/20 09:24:16;;;;;;;4.10;3.70;;;27.10;99.90;;;;;;5097650;28;20256;-81
2023/07/20 09:26:44;;;;;;;4.32;3.50;;;27.30;99.90;;;;;;5097206;28;20229;-78
2023/07/20 09:29:12;;;;;;;4.13;3.78;;;27.40;99.90;;;;;;5096098;28;20255;-78
2023/07/20 09:31:41;;;;;;;4.43;4.03;;;27.60;99.90;;;;;;5093533;28;20745;-78
2023/07/20 09:34:08;;;;;;;3.92;3.53;;;27.90;99.90;;;;;;5098407;27;20193;-76
2023/07/20 09:36:36;;;;;;;4.80;4.32;;;28.00;99.90;;;;;;5095408;28;20197;-86
2023/07/20 09:39:04;;;;;;;5.68;4.10;;;28.00;99.90;;;;;;5094177;28;20949;-81
2023/07/20 09:41:31;;;;;;;4.32;3.92;;;27.90;99.90;;;;;;5093219;28;20984;-82
2023/07/20 09:43:58;;;;;;;6.88;3.58;;;28.00;99.90;;;;;;5093150;28;20244;-79
2023/07/20 09:46:25;;;;;;;3.88;3.58;;;28.20;99.90;;;;;;5096812;28;20300;-82
2023/07/20 09:48:54;;;;;;;3.95;3.65;;;28.40;99.90;;;;;;5096111;28;20217;-78
2023/07/20 09:51:23;;;;;;;5.78;4.20;;;28.50;99.90;;;;;;5094977;28;20643;-79
2023/07/20 09:53:50;;;;;;;4.22;3.22;;;28.50;99.90;;;;;;5093638;28;20619;-78
2023/07/20 09:56:20;;;;;;;4.05;3.75;;;28.50;99.90;;;;;;5097376;28;20291;-81
2023/07/20 09:58:47;;;;;;;3.70;3.40;;;28.40;99.90;;;;;;5094485;28;20308;-83
2023/07/20 10:01:19;;;;;;;5.32;4.00;;;28.40;99.90;;;;;;5097097;27;20289;-80
2023/07/20 10:03:47;;;;;;;4.70;3.58;;;28.60;99.90;;;;;;5094986;28;20300;-76
2023/07/20 10:06:19;;;;;;;4.00;3.60;;;28.80;99.90;;;;;;5096732;28;20253;-80
2023/07/20 10:08:48;;;;;;;3.75;3.40;;;28.80;99.90;;;;;;5092000;28;21018;-83
2023/07/20 10:11:17;;;;;;;5.20;3.70;;;28.70;99.90;;;;;;5096937;28;20719;-81
2023/07/20 10:13:47;;;;;;;4.63;3.65;;;28.50;99.90;;;;;;5093584;28;20213;-79
2023/07/20 10:16:23;;;;;;;3.97;3.58;;;28.50;99.90;;;;;;5085331;28;20229;-80
2023/07/20 10:18:55;;;;;;;5.35;3.90;;;28.60;99.90;;;;;;5094085;28;20248;-76
2023/07/20 10:21:24;;;;;;;4.18;3.25;;;28.70;99.90;;;;;;5097072;28;20205;-80
2023/07/20 10:23:51;;;;;;;3.97;3.42;;;28.80;99.90;;;;;;5096508;28;20219;-81
2023/07/20 10:26:18;;;;;;;3.70;3.40;;;29.10;99.90;;;;;;5094655;28;20233;-80
2023/07/20 10:28:45;;;;;;;3.90;3.60;;;29.20;99.90;;;;;;5092440;28;20308;-80
2023/07/20 10:31:15;;;;;;;4.13;3.45;;;29.40;99.90;;;;;;5092949;28;20289;-77
2023/07/20 10:33:43;;;;;;;5.22;3.70;;;29.30;99.90;;;;;;5091161;28;20208;-81
2023/07/20 10:36:12;;;;;;;3.65;3.35;;;29.20;99.90;;;;;;5095509;28;20743;-84
2023/07/20 10:38:53;;;;;;;4.88;3.50;;;29.30;99.90;;;;;;5095424;28;20274;-78
2023/07/20 10:41:21;;;;;;;4.00;3.70;;;29.40;99.90;;;;;;5091264;28;20877;-81
2023/07/20 10:43:49;;;;;;;4.25;3.65;;;29.50;99.90;;;;;;5091008;28;20761;-76
2023/07/20 10:46:34;;;;;;;4.00;3.70;;;29.70;99.90;;;;;;5092218;28;20274;-75
2023/07/20 10:49:01;;;;;;;4.38;3.80;;;29.60;99.90;;;;;;5093742;28;20224;-74
2023/07/20 10:51:29;;;;;;;4.30;3.90;;;29.50;99.90;;;;;;5094843;28;20205;-77
2023/07/20 10:53:58;;;;;;;4.32;3.92;;;29.60;99.90;;;;;;5092101;28;20298;-78
2023/07/20 10:56:29;;;;;;;4.30;3.53;;;29.70;99.90;;;;;;5094966;28;20503;-76
2023/07/20 10:58:59;;;;;;;3.92;3.55;;;29.70;99.90;;;;;;5093459;28;20321;-80
2023/07/20 11:01:31;;;;;;;4.05;3.67;;;29.80;99.90;;;;;;5091943;28;20879;-76
2023/07/20 11:04:01;;;;;;;4.53;3.88;;;29.90;99.90;;;;;;5089246;28;20266;-79
2023/07/20 11:06:37;;;;;;;3.63;3.33;;;29.80;99.90;;;;;;5094420;28;20311;-78
2023/07/20 11:09:15;;;;;;;7.32;4.10;;;29.80;99.90;;;;;;5097113;28;20307;-80
2023/07/20 11:11:43;;;;;;;3.67;3.38;;;30.10;99.90;;;;;;5092368;28;20283;-77
2023/07/20 11:14:11;;;;;;;3.83;3.30;;;30.00;99.90;;;;;;5094768;28;20224;-78
2023/07/20 11:16:41;;;;;;;3.88;3.53;;;30.10;99.90;;;;;;5095944;28;20678;-79
2023/07/20 11:19:16;;;;;;;3.60;3.30;;;30.10;99.90;;;;;;5095443;28;20227;-79
2023/07/20 11:21:45;;;;;;;3.80;3.50;;;30.10;99.90;;;;;;5095442;28;20206;-78
2023/07/20 11:24:14;;;;;;;3.92;3.50;;;30.10;99.90;;;;;;5096043;28;20304;-79
2023/07/20 11:26:45;;;;;;;6.00;3.92;;;30.00;99.90;;;;;;5094845;28;20209;-81
2023/07/20 11:29:12;;;;;;;5.82;3.80;;;30.00;99.90;;;;;;5096511;28;21283;-80
2023/07/20 11:31:39;;;;;;;4.32;3.92;;;30.00;99.90;;;;;;5094236;28;20775;-80
2023/07/20 11:34:07;;;;;;;3.63;3.33;;;30.00;99.90;;;;;;5092815;28;20324;-79
2023/07/20 11:36:35;;;;;;;5.35;3.80;;;30.20;99.90;;;;;;5095476;28;20228;-80
2023/07/20 11:39:04;;;;;;;3.65;3.35;;;30.20;99.90;;;;;;5094255;28;20317;-78
2023/07/20 11:41:33;;;;;;;3.38;3.08;;;30.40;99.90;;;;;;5092354;28;20198;-81
2023/07/20 11:44:00;;;;;;;3.75;3.28;;;30.40;99.90;;;;;;5093596;28;20228;-78
2023/07/20 11:46:29;;;;;;;3.53;3.22;;;30.40;99.90;;;;;;5094619;28;20214;-82
2023/07/20 11:49:00;;;;;;;4.00;3.58;;;30.50;99.90;;;;;;5095729;28;20771;-81
2023/07/20 11:51:28;;;;;;;6.82;3.58;;;30.60;99.90;;;;;;5092332;28;20881;-75
2023/07/20 11:53:56;;;;;;;3.80;3.50;;;30.50;99.90;;;;;;5098455;28;20297;-77
2023/07/20 11:56:24;;;;;;;3.33;3.10;;;30.50;99.90;;;;;;5093941;28;20196;-76
2023/07/20 11:58:56;;;;;;;4.03;3.42;;;30.50;99.90;;;;;;5095590;28;20310;-78
2023/07/20 12:01:24;;;;;;;3.47;3.17;;;30.50;99.90;;;;;;5095012;28;20288;-79
2023/07/20 12:03:51;;;;;;;4.75;3.55;;;30.70;99.90;;;;;;5092701;28;20266;-80
2023/07/20 12:06:18;;;;;;;4.10;3.70;;;30.70;99.90;;;;;;5096012;28;20279;-80
2023/07/20 12:08:45;;;;;;;4.38;3.97;;;30.70;99.90;;;;;;5099439;28;20307;-82
2023/07/20 12:11:12;;;;;;;4.75;3.78;;;30.70;99.90;;;;;;5097359;28;20205;-79
2023/07/20 12:13:42;;;;;;;4.68;3.75;;;30.70;99.90;;;;;;5094732;28;20197;-77
2023/07/20 12:16:15;;;;;;;4.95;3.53;;;30.70;99.90;;;;;;5095841;28;20200;-82
2023/07/20 12:18:42;;;;;;;3.53;3.22;;;30.70;99.90;;;;;;5094607;28;20758;-83
2023/07/20 12:21:10;;;;;;;3.75;3.45;;;30.70;99.90;;;;;;5097266;28;20200;-83
2023/07/20 12:23:39;;;;;;;4.55;3.97;;;30.80;99.90;;;;;;5095785;28;20201;-81
2023/07/20 12:26:09;;;;;;;4.03;3.63;;;30.90;99.90;;;;;;5098001;28;20217;-77
2023/07/20 12:28:41;;;;;;;4.97;3.78;;;30.90;99.90;;;;;;5092910;28;20285;-83
2023/07/20 12:31:09;;;;;;;4.82;3.65;;;30.70;99.90;;;;;;5097222;28;20197;-81
2023/07/20 12:33:38;;;;;;;5.50;3.80;;;30.90;99.90;;;;;;5095553;28;20207;-83
2023/07/20 12:36:06;;;;;;;6.80;4.65;;;30.90;99.90;;;;;;5100493;28;21028;-80
2023/07/20 12:38:33;;;;;;;4.95;4.40;;;30.80;99.90;;;;;;5095995;28;20224;-79
2023/07/20 12:41:01;;;;;;;5.15;4.65;;;30.60;99.90;;;;;;5100922;28;20196;-81
2023/07/20 12:43:29;;;;;;;5.10;4.63;;;30.50;99.90;;;;;;5095443;28;20205;-80
2023/07/20 12:45:56;;;;;;;4.35;3.95;;;30.70;99.90;;;;;;5098693;28;20214;-81
2023/07/20 12:48:23;;;;;;;4.80;4.40;;;30.90;99.90;;;;;;5098312;28;20229;-79
2023/07/20 12:50:51;;;;;;;4.22;3.83;;;31.30;99.90;;;;;;5095131;28;20882;-79
2023/07/20 12:53:19;;;;;;;4.80;4.30;;;31.50;99.90;;;;;;5095507;28;20242;-79